Time;durP1;ratioP1;P1;durP2;ratioP2;P2;SDS_P1;SDS_P2;PMS_P1;PMS_P2;Temp;Humidity;BMP_temperature;BMP_pressure;BME280_temperature;BME280_humidity;BME280_pressure;Samples;Min_cycle;Max_cycle;Signal;HPM_P1;HPM_P2
2021/12/30 00:00:51;;;;;;;4.60;4.10;;;;;;;;;;5074361;28;20210;-84
2021/12/30 00:03:17;;;;;;;5.00;4.00;;;;;;;;;;5058015;28;20186;-84
2021/12/30 00:05:43;;;;;;;4.57;4.03;;;;;;;;;;5057991;28;20233;-84
2021/12/30 00:08:09;;;;;;;5.47;4.50;;;;;;;;;;5074276;28;20182;-84
2021/12/30 00:10:36;;;;;;;5.33;4.50;;;;;;;;;;5057559;28;20625;-84
2021/12/30 00:13:03;;;;;;;5.77;4.50;;;;;;;;;;5074289;28;20565;-84
2021/12/30 00:15:29;;;;;;;5.83;5.00;;;;;;;;;;5074191;28;20199;-84
2021/12/30 00:17:55;;;;;;;6.30;4.67;;;;;;;;;;5057897;28;20176;-84
2021/12/30 00:20:21;;;;;;;7.00;5.33;;;;;;;;;;5057644;28;20179;-84
2021/12/30 00:22:47;;;;;;;5.97;4.57;;;;;;;;;;5074371;28;20183;-85
2021/12/30 00:25:15;;;;;;;5.10;4.27;;;;;;;;;;5057476;28;20188;-84
2021/12/30 00:27:43;;;;;;;6.93;4.70;;;;;;;;;;5073977;28;20262;-86
2021/12/30 00:30:10;;;;;;;5.57;4.60;;;;;;;;;;5074647;28;20190;-86
2021/12/30 00:32:36;;;;;;;5.97;4.77;;;;;;;;;;5057627;28;20215;-84
2021/12/30 00:35:03;;;;;;;5.77;4.77;;;;;;;;;;5074333;28;20171;-84
2021/12/30 00:37:29;;;;;;;6.83;5.03;;;;;;;;;;5073951;28;20241;-84
2021/12/30 00:39:55;;;;;;;7.57;5.00;;;;;;;;;;5074177;28;20175;-84
2021/12/30 00:42:21;;;;;;;6.50;5.40;;;;;;;;;;5057134;28;20535;-84
2021/12/30 00:44:47;;;;;;;7.37;5.30;;;;;;;;;;5057444;28;20187;-84
2021/12/30 00:47:13;;;;;;;6.97;5.23;;;;;;;;;;5057524;28;20206;-84
2021/12/30 00:49:39;;;;;;;9.23;6.20;;;;;;;;;;5074500;28;20187;-84
2021/12/30 00:52:05;;;;;;;7.70;6.37;;;;;;;;;;5073623;28;20183;-84
2021/12/30 00:54:31;;;;;;;9.03;6.17;;;;;;;;;;5057475;28;20180;-85
2021/12/30 00:56:59;;;;;;;8.53;6.00;;;;;;;;;;5057419;28;20292;-84
2021/12/30 00:59:25;;;;;;;8.07;6.00;;;;;;;;;;5057888;28;20176;-84
2021/12/30 01:01:51;;;;;;;8.37;6.17;;;;;;;;;;5073704;28;20177;-84
2021/12/30 01:04:20;;;;;;;9.17;6.40;;;;;;;;;;5074142;28;20186;-84
2021/12/30 01:06:46;;;;;;;10.10;6.20;;;;;;;;;;5073802;28;20196;-86
2021/12/30 01:09:12;;;;;;;9.17;6.43;;;;;;;;;;5059206;28;20193;-85
2021/12/30 01:11:38;;;;;;;9.80;6.70;;;;;;;;;;5077153;28;20184;-85
2021/12/30 01:14:14;;;;;;;10.03;6.93;;;;;;;;;;5077568;28;20215;-85
2021/12/30 01:16:43;;;;;;;8.93;6.70;;;;;;;;;;5062309;28;20206;-85
2021/12/30 01:21:55;;;;;;;11.00;6.90;;;;;;;;;;5095332;28;20213;-85
2021/12/30 01:24:22;;;;;;;10.37;7.80;;;;;;;;;;5077532;28;20180;-85
2021/12/30 01:26:48;;;;;;;11.00;7.20;;;;;;;;;;5077386;28;20265;-84
2021/12/30 01:29:14;;;;;;;10.67;7.10;;;;;;;;;;5060395;28;20184;-85
2021/12/30 01:31:40;;;;;;;11.17;7.67;;;;;;;;;;5060346;28;20188;-84
2021/12/30 01:34:06;;;;;;;11.73;7.63;;;;;;;;;;5076897;28;20204;-84
2021/12/30 01:36:32;;;;;;;11.00;7.33;;;;;;;;;;5060360;28;20222;-84
2021/12/30 01:38:58;;;;;;;10.73;7.97;;;;;;;;;;5077165;28;20263;-84
2021/12/30 01:41:24;;;;;;;11.77;8.07;;;;;;;;;;5076825;28;20172;-84
2021/12/30 01:43:51;;;;;;;12.30;8.23;;;;;;;;;;5076983;28;20208;-85
2021/12/30 01:46:17;;;;;;;10.90;7.67;;;;;;;;;;5076801;28;20253;-86
2021/12/30 01:48:43;;;;;;;12.27;7.57;;;;;;;;;;5076705;28;20207;-84
2021/12/30 01:51:09;;;;;;;13.37;8.23;;;;;;;;;;5059755;28;20229;-85
2021/12/30 01:53:36;;;;;;;13.43;8.67;;;;;;;;;;5076554;28;20203;-84
2021/12/30 01:56:02;;;;;;;13.67;8.07;;;;;;;;;;5060333;28;20198;-84
2021/12/30 01:58:29;;;;;;;12.67;8.40;;;;;;;;;;5060107;28;20219;-84
2021/12/30 02:00:55;;;;;;;12.10;8.30;;;;;;;;;;5059796;28;20180;-84
2021/12/30 02:03:24;;;;;;;11.90;7.87;;;;;;;;;;5060117;28;20282;-85
2021/12/30 02:05:50;;;;;;;11.03;7.87;;;;;;;;;;5076286;28;20200;-84
2021/12/30 02:08:18;;;;;;;12.73;7.77;;;;;;;;;;5076336;28;20173;-84
2021/12/30 02:10:45;;;;;;;11.83;7.50;;;;;;;;;;5059486;28;20622;-84
2021/12/30 02:13:12;;;;;;;11.43;7.30;;;;;;;;;;5059629;28;20233;-86
2021/12/30 02:15:39;;;;;;;12.40;7.60;;;;;;;;;;5076175;28;20196;-84
2021/12/30 02:18:06;;;;;;;12.00;7.53;;;;;;;;;;5076082;28;20176;-86
2021/12/30 02:20:41;;;;;;;14.17;7.87;;;;;;;;;;5075429;28;20172;-85
2021/12/30 02:23:07;;;;;;;10.83;7.57;;;;;;;;;;5075810;28;20183;-84
2021/12/30 02:25:34;;;;;;;10.73;7.13;;;;;;;;;;5076263;28;20546;-84
2021/12/30 02:28:00;;;;;;;12.50;7.13;;;;;;;;;;5075574;28;20187;-85
2021/12/30 02:30:26;;;;;;;11.27;6.80;;;;;;;;;;5075902;28;20183;-85
2021/12/30 02:32:52;;;;;;;7.80;5.80;;;;;;;;;;5059020;28;20257;-84
2021/12/30 02:35:18;;;;;;;7.93;6.03;;;;;;;;;;5059390;28;20175;-84
2021/12/30 02:37:44;;;;;;;10.73;6.13;;;;;;;;;;5059220;28;20179;-84
2021/12/30 02:40:10;;;;;;;9.70;6.27;;;;;;;;;;5059336;28;20187;-84
2021/12/30 02:42:36;;;;;;;8.67;5.50;;;;;;;;;;5075733;28;20180;-84
2021/12/30 02:45:02;;;;;;;7.97;5.53;;;;;;;;;;5059035;28;20226;-84
2021/12/30 02:47:32;;;;;;;8.90;6.10;;;;;;;;;;5075895;28;20203;-84
2021/12/30 02:49:58;;;;;;;7.60;5.60;;;;;;;;;;5075766;28;20183;-85
2021/12/30 02:52:24;;;;;;;10.43;5.50;;;;;;;;;;5058839;28;20549;-85
2021/12/30 02:54:50;;;;;;;6.97;4.53;;;;;;;;;;5058960;28;20187;-84
2021/12/30 02:57:16;;;;;;;8.87;4.57;;;;;;;;;;5058971;28;20202;-84
2021/12/30 02:59:42;;;;;;;7.27;4.03;;;;;;;;;;5059048;28;20180;-84
2021/12/30 03:02:08;;;;;;;8.93;4.53;;;;;;;;;;5058753;28;20203;-84
2021/12/30 03:04:36;;;;;;;8.37;4.20;;;;;;;;;;5058851;28;20179;-84
2021/12/30 03:07:02;;;;;;;5.10;3.10;;;;;;;;;;5075117;28;20192;-84
2021/12/30 03:09:28;;;;;;;6.20;3.30;;;;;;;;;;5075019;28;20554;-84
2021/12/30 03:11:56;;;;;;;7.47;2.97;;;;;;;;;;5058436;28;20176;-84
2021/12/30 03:14:24;;;;;;;5.93;2.93;;;;;;;;;;5058870;28;20204;-84
2021/12/30 03:16:50;;;;;;;8.43;3.20;;;;;;;;;;5058940;28;20270;-84
2021/12/30 03:19:16;;;;;;;7.57;3.17;;;;;;;;;;5058587;28;20528;-84
2021/12/30 03:21:42;;;;;;;8.47;3.33;;;;;;;;;;5075007;28;20275;-84
2021/12/30 03:24:09;;;;;;;7.80;2.60;;;;;;;;;;5074988;28;20184;-84
2021/12/30 03:26:35;;;;;;;10.77;3.40;;;;;;;;;;5074977;28;20199;-84
2021/12/30 03:29:01;;;;;;;9.00;2.90;;;;;;;;;;5074739;28;20187;-84
2021/12/30 03:31:27;;;;;;;9.97;2.53;;;;;;;;;;5074734;28;20206;-84
2021/12/30 03:33:54;;;;;;;5.43;2.33;;;;;;;;;;5058015;28;20212;-85
2021/12/30 03:36:20;;;;;;;7.83;2.60;;;;;;;;;;5058125;28;20220;-84
2021/12/30 03:38:48;;;;;;;9.13;2.60;;;;;;;;;;5074628;28;20176;-85
2021/12/30 03:41:15;;;;;;;7.63;2.60;;;;;;;;;;5074694;28;20176;-84
2021/12/30 03:43:41;;;;;;;9.13;2.90;;;;;;;;;;5074913;28;20236;-84
2021/12/30 03:46:08;;;;;;;8.07;2.50;;;;;;;;;;5074786;28;20204;-84
2021/12/30 03:48:39;;;;;;;6.23;2.40;;;;;;;;;;5074550;28;20643;-85
2021/12/30 03:51:09;;;;;;;7.10;2.73;;;;;;;;;;5074608;28;20177;-84
2021/12/30 03:53:38;;;;;;;5.93;2.57;;;;;;;;;;5058782;28;20203;-84
2021/12/30 03:56:07;;;;;;;8.30;2.47;;;;;;;;;;5074719;28;20192;-84
2021/12/30 03:58:33;;;;;;;6.60;2.50;;;;;;;;;;5058016;28;20263;-84
2021/12/30 04:00:59;;;;;;;6.00;2.80;;;;;;;;;;5074935;28;20203;-84
2021/12/30 04:03:25;;;;;;;7.77;3.10;;;;;;;;;;5074795;28;20642;-84
2021/12/30 04:05:51;;;;;;;7.13;2.77;;;;;;;;;;5074497;28;20294;-84
2021/12/30 04:08:17;;;;;;;7.30;2.60;;;;;;;;;;5058126;28;20222;-84
2021/12/30 04:10:44;;;;;;;6.93;2.97;;;;;;;;;;5057769;28;20271;-84
2021/12/30 04:13:10;;;;;;;6.50;2.97;;;;;;;;;;5058090;28;20246;-84
2021/12/30 04:15:36;;;;;;;9.67;3.27;;;;;;;;;;5058017;28;20685;-84
2021/12/30 04:18:02;;;;;;;7.03;3.30;;;;;;;;;;5057932;28;20183;-84
2021/12/30 04:20:28;;;;;;;8.83;3.40;;;;;;;;;;5074399;28;20175;-84
2021/12/30 04:22:54;;;;;;;6.47;3.20;;;;;;;;;;5074494;28;20591;-84
2021/12/30 04:25:20;;;;;;;8.73;3.33;;;;;;;;;;5074443;28;20172;-85
2021/12/30 04:27:46;;;;;;;6.90;3.53;;;;;;;;;;5058019;28;20278;-84
2021/12/30 04:30:15;;;;;;;5.90;3.50;;;;;;;;;;5074499;28;20221;-86
2021/12/30 04:32:41;;;;;;;7.30;3.60;;;;;;;;;;5074171;28;20295;-86
2021/12/30 04:35:07;;;;;;;6.67;3.37;;;;;;;;;;5074143;28;20675;-86
2021/12/30 04:37:34;;;;;;;8.67;3.47;;;;;;;;;;5074188;28;20650;-84
2021/12/30 04:40:01;;;;;;;10.40;3.73;;;;;;;;;;5074207;28;20181;-83
2021/12/30 04:42:27;;;;;;;6.30;3.60;;;;;;;;;;5074111;28;20184;-84
2021/12/30 04:44:53;;;;;;;6.90;3.30;;;;;;;;;;5061074;28;20599;-85
2021/12/30 04:47:20;;;;;;;7.87;3.83;;;;;;;;;;5077636;28;20203;-84
2021/12/30 04:49:46;;;;;;;6.83;3.47;;;;;;;;;;5077851;28;20180;-84
2021/12/30 04:52:12;;;;;;;8.43;3.20;;;;;;;;;;5077358;28;20191;-84
2021/12/30 04:54:38;;;;;;;10.27;3.70;;;;;;;;;;5061373;28;20180;-84
2021/12/30 04:57:04;;;;;;;6.60;3.50;;;;;;;;;;5077769;28;20195;-84
2021/12/30 04:59:30;;;;;;;8.33;3.10;;;;;;;;;;5078005;28;20173;-84
2021/12/30 05:01:58;;;;;;;11.20;3.50;;;;;;;;;;5060811;28;20657;-84
2021/12/30 05:04:24;;;;;;;6.50;3.50;;;;;;;;;;5061090;28;20183;-84
2021/12/30 05:06:50;;;;;;;7.20;3.00;;;;;;;;;;5077478;28;20202;-84
2021/12/30 05:09:16;;;;;;;5.77;3.10;;;;;;;;;;5077317;28;20269;-84
2021/12/30 05:11:43;;;;;;;9.70;3.30;;;;;;;;;;5060832;28;20211;-84
2021/12/30 05:14:09;;;;;;;7.20;2.73;;;;;;;;;;5060842;28;20300;-84
2021/12/30 05:16:36;;;;;;;8.87;3.00;;;;;;;;;;5077238;28;20198;-86
2021/12/30 05:19:02;;;;;;;4.10;2.30;;;;;;;;;;5060718;28;20283;-85
2021/12/30 05:21:28;;;;;;;5.67;2.57;;;;;;;;;;5060705;28;20180;-84
2021/12/30 05:23:54;;;;;;;7.93;2.30;;;;;;;;;;5060451;28;20190;-84
2021/12/30 05:26:22;;;;;;;5.30;1.90;;;;;;;;;;5060713;28;20205;-84
2021/12/30 05:28:48;;;;;;;6.83;2.40;;;;;;;;;;5077200;28;20205;-84
2021/12/30 05:31:14;;;;;;;6.97;2.50;;;;;;;;;;5076920;28;20180;-84
2021/12/30 05:33:41;;;;;;;4.13;2.50;;;;;;;;;;5060510;28;20215;-84
2021/12/30 05:36:07;;;;;;;6.40;2.63;;;;;;;;;;5079776;23;20232;-85
2021/12/30 05:38:33;;;;;;;7.13;2.40;;;;;;;;;;5056781;28;20181;-85
2021/12/30 05:40:59;;;;;;;6.57;2.07;;;;;;;;;;5073051;28;20174;-85
2021/12/30 05:43:25;;;;;;;4.07;2.10;;;;;;;;;;5056701;28;20176;-85
2021/12/30 05:45:51;;;;;;;4.60;2.30;;;;;;;;;;5056710;28;20208;-85
2021/12/30 05:48:17;;;;;;;3.63;1.80;;;;;;;;;;5073312;28;20181;-85
2021/12/30 05:50:43;;;;;;;6.23;1.90;;;;;;;;;;5072951;28;20187;-85
2021/12/30 05:53:09;;;;;;;4.63;1.73;;;;;;;;;;5073322;28;20211;-85
2021/12/30 05:55:35;;;;;;;4.37;1.80;;;;;;;;;;5071766;28;20187;-86
2021/12/30 05:58:01;;;;;;;4.97;1.93;;;;;;;;;;5073363;28;20187;-84
2021/12/30 06:00:28;;;;;;;5.33;2.00;;;;;;;;;;5073603;28;20173;-85
2021/12/30 06:02:54;;;;;;;5.77;2.00;;;;;;;;;;5073634;28;20595;-85
2021/12/30 06:05:21;;;;;;;6.27;2.23;;;;;;;;;;5073631;28;20180;-84
2021/12/30 06:07:48;;;;;;;7.17;2.10;;;;;;;;;;5073648;28;20204;-80
2021/12/30 06:10:14;;;;;;;5.73;1.70;;;;;;;;;;5073850;28;20181;-81
2021/12/30 06:12:42;;;;;;;6.17;1.90;;;;;;;;;;5073151;28;20216;-82
2021/12/30 06:15:09;;;;;;;4.57;1.70;;;;;;;;;;5075893;28;20172;-83
2021/12/30 06:17:37;;;;;;;7.77;1.80;;;;;;;;;;5073864;28;20223;-82
2021/12/30 06:20:03;;;;;;;5.03;2.13;;;;;;;;;;5074288;28;20199;-83
2021/12/30 06:22:29;;;;;;;7.77;2.00;;;;;;;;;;5074471;28;20204;-80
2021/12/30 06:24:55;;;;;;;4.10;1.60;;;;;;;;;;5074492;28;20191;-80
2021/12/30 06:27:21;;;;;;;7.43;2.03;;;;;;;;;;5073859;28;20227;-78
2021/12/30 06:29:47;;;;;;;4.13;1.47;;;;;;;;;;5073137;28;20214;-79
2021/12/30 06:32:13;;;;;;;5.30;1.73;;;;;;;;;;5073060;28;20567;-79
2021/12/30 06:34:39;;;;;;;8.03;2.10;;;;;;;;;;5074936;28;20177;-78
2021/12/30 06:37:05;;;;;;;6.03;1.77;;;;;;;;;;5073325;28;20216;-79
2021/12/30 06:39:31;;;;;;;4.03;1.70;;;;;;;;;;5073560;28;20227;-78
2021/12/30 06:41:57;;;;;;;4.00;1.63;;;;;;;;;;5072941;28;20177;-79
2021/12/30 06:44:23;;;;;;;5.27;2.00;;;;;;;;;;5072617;28;20269;-80
2021/12/30 06:46:58;;;;;;;8.13;2.10;;;;;;;;;;5072156;28;20652;-80
2021/12/30 06:49:24;;;;;;;5.87;1.97;;;;;;;;;;5072202;28;20613;-80
2021/12/30 06:51:51;;;;;;;5.80;1.80;;;;;;;;;;5073446;28;20181;-80
2021/12/30 06:54:17;;;;;;;4.50;1.87;;;;;;;;;;5072257;28;20235;-80
2021/12/30 06:56:43;;;;;;;4.73;1.90;;;;;;;;;;5072035;28;20197;-80
2021/12/30 06:59:14;;;;;;;4.60;1.70;;;;;;;;;;5071928;28;20227;-80
2021/12/30 07:01:40;;;;;;;5.50;2.20;;;;;;;;;;5073440;28;20207;-81
2021/12/30 07:04:06;;;;;;;5.03;2.10;;;;;;;;;;5071797;28;20180;-80
2021/12/30 07:06:32;;;;;;;8.37;2.30;;;;;;;;;;5071594;28;20204;-80
2021/12/30 07:08:58;;;;;;;5.33;2.17;;;;;;;;;;5071966;28;20283;-82
2021/12/30 07:11:24;;;;;;;5.33;2.03;;;;;;;;;;5071614;28;20185;-81
2021/12/30 07:13:50;;;;;;;2.80;1.80;;;;;;;;;;5071916;28;20215;-79
2021/12/30 07:16:16;;;;;;;4.60;2.03;;;;;;;;;;5072053;28;20200;-79
2021/12/30 07:18:42;;;;;;;2.83;2.20;;;;;;;;;;5071920;28;20215;-80
2021/12/30 07:21:08;;;;;;;7.03;2.33;;;;;;;;;;5071624;28;20590;-81
2021/12/30 07:23:34;;;;;;;4.23;2.33;;;;;;;;;;5071612;28;20271;-81
2021/12/30 07:26:00;;;;;;;5.00;2.20;;;;;;;;;;5072111;28;20215;-82
2021/12/30 07:28:26;;;;;;;3.93;2.27;;;;;;;;;;5071852;28;20206;-82
2021/12/30 07:30:52;;;;;;;7.40;2.10;;;;;;;;;;5071835;28;20560;-82
2021/12/30 07:33:18;;;;;;;4.60;2.00;;;;;;;;;;5071990;28;20216;-81
2021/12/30 07:35:44;;;;;;;4.93;1.90;;;;;;;;;;5071497;28;20179;-82
2021/12/30 07:38:10;;;;;;;5.50;2.40;;;;;;;;;;5072518;28;20231;-82
2021/12/30 07:40:36;;;;;;;7.07;4.10;;;;;;;;;;5071641;28;20188;-81
2021/12/30 07:43:03;;;;;;;4.30;2.27;;;;;;;;;;5071770;28;20181;-82
2021/12/30 07:45:29;;;;;;;4.17;2.10;;;;;;;;;;5072111;28;20185;-81
2021/12/30 07:47:55;;;;;;;3.80;1.90;;;;;;;;;;5072406;28;20231;-83
2021/12/30 07:50:39;;;;;;;4.20;2.20;;;;;;;;;;5072163;28;20180;-82
2021/12/30 07:53:05;;;;;;;2.00;1.60;;;;;;;;;;5071897;28;20288;-82
2021/12/30 07:55:31;;;;;;;4.70;2.07;;;;;;;;;;5072698;28;20173;-82
2021/12/30 07:57:58;;;;;;;3.47;1.67;;;;;;;;;;5071678;28;20195;-82
2021/12/30 08:00:24;;;;;;;1.93;1.60;;;;;;;;;;5071715;28;20174;-82
2021/12/30 08:02:50;;;;;;;3.20;1.50;;;;;;;;;;5071847;28;20181;-82
2021/12/30 08:05:17;;;;;;;2.30;1.67;;;;;;;;;;5071874;28;20181;-82
2021/12/30 08:07:45;;;;;;;2.07;1.53;;;;;;;;;;5071439;28;20201;-82
2021/12/30 08:10:14;;;;;;;1.93;1.40;;;;;;;;;;5071320;28;20187;-82
2021/12/30 08:12:40;;;;;;;2.17;1.30;;;;;;;;;;5071493;28;20295;-82
2021/12/30 08:15:07;;;;;;;3.10;1.30;;;;;;;;;;5071281;28;20195;-82
2021/12/30 08:17:33;;;;;;;1.87;1.20;;;;;;;;;;5072460;28;20185;-82
2021/12/30 08:19:59;;;;;;;1.80;1.40;;;;;;;;;;5075339;28;20173;-82
2021/12/30 08:22:25;;;;;;;1.67;1.20;;;;;;;;;;5075438;28;20177;-82
2021/12/30 08:24:51;;;;;;;2.87;1.27;;;;;;;;;;5075519;28;20169;-82
2021/12/30 08:27:17;;;;;;;1.30;1.13;;;;;;;;;;5075514;28;20203;-82
2021/12/30 08:29:44;;;;;;;2.20;1.33;;;;;;;;;;5075546;28;20199;-82
2021/12/30 08:32:11;;;;;;;2.07;1.30;;;;;;;;;;5075457;28;20177;-82
2021/12/30 08:34:38;;;;;;;1.50;1.30;;;;;;;;;;5075603;28;20205;-82
2021/12/30 08:37:04;;;;;;;1.63;1.43;;;;;;;;;;5076250;28;20243;-82
2021/12/30 08:39:34;;;;;;;1.50;1.30;;;;;;;;;;5074953;28;20693;-82
2021/12/30 08:42:00;;;;;;;1.70;1.60;;;;;;;;;;5072818;28;20640;-82
2021/12/30 08:44:26;;;;;;;1.50;1.40;;;;;;;;;;5069734;28;20215;-82
2021/12/30 08:46:52;;;;;;;1.40;1.30;;;;;;;;;;5062743;28;20284;-82
2021/12/30 08:49:18;;;;;;;2.17;1.33;;;;;;;;;;5071593;28;20185;-82
2021/12/30 08:51:44;;;;;;;1.40;1.30;;;;;;;;;;5074129;28;20208;-82
2021/12/30 08:54:10;;;;;;;2.60;1.50;;;;;;;;;;5075033;28;20244;-82
2021/12/30 08:56:36;;;;;;;1.67;1.33;;;;;;;;;;5075183;28;20295;-81
2021/12/30 08:59:02;;;;;;;1.40;1.30;;;;;;;;;;5075050;28;20635;-82
2021/12/30 09:01:28;;;;;;;1.30;1.20;;;;;;;;;;5075261;28;20169;-82
2021/12/30 09:03:54;;;;;;;1.50;1.20;;;;;;;;;;5074725;28;20572;-82
2021/12/30 09:06:20;;;;;;;1.43;1.33;;;;;;;;;;5074764;28;20223;-83
2021/12/30 09:08:46;;;;;;;1.50;1.40;;;;;;;;;;5050902;28;20178;-83
2021/12/30 09:11:12;;;;;;;1.80;1.70;;;;;;;;;;5053968;28;20201;-83
2021/12/30 09:13:38;;;;;;;1.97;1.77;;;;;;;;;;5071163;28;20197;-83
2021/12/30 09:16:04;;;;;;;2.17;1.97;;;;;;;;;;5054704;28;20330;-83
2021/12/30 09:18:30;;;;;;;2.20;2.00;;;;;;;;;;5056154;28;20174;-83
2021/12/30 09:20:57;;;;;;;2.50;2.07;;;;;;;;;;5058760;28;20180;-82
2021/12/30 09:23:23;;;;;;;2.97;2.50;;;;;;;;;;5091506;28;20180;-82
2021/12/30 09:25:49;;;;;;;2.90;2.57;;;;;;;;;;5091190;28;20202;-82
2021/12/30 09:28:15;;;;;;;3.10;2.80;;;;;;;;;;5091555;28;20211;-82
2021/12/30 09:30:42;;;;;;;3.17;2.87;;;;;;;;;;5073063;28;20227;-82
2021/12/30 09:33:09;;;;;;;4.87;2.97;;;;;;;;;;5090676;28;20674;-83
2021/12/30 09:35:35;;;;;;;4.53;3.53;;;;;;;;;;5090363;28;20200;-83
2021/12/30 09:38:01;;;;;;;5.07;3.90;;;;;;;;;;5056855;28;20185;-82
2021/12/30 09:40:28;;;;;;;5.90;3.77;;;;;;;;;;5072894;28;20169;-83
2021/12/30 09:43:01;;;;;;;4.87;4.13;;;;;;;;;;5090726;28;20173;-83
2021/12/30 09:45:27;;;;;;;4.20;3.70;;;;;;;;;;5090280;28;20161;-82
2021/12/30 09:47:55;;;;;;;5.23;3.87;;;;;;;;;;5073310;28;20176;-83
2021/12/30 09:50:23;;;;;;;5.63;4.20;;;;;;;;;;5089907;28;20195;-83
2021/12/30 09:52:50;;;;;;;4.70;4.03;;;;;;;;;;5089655;28;20201;-82
2021/12/30 09:55:17;;;;;;;5.10;4.50;;;;;;;;;;5073737;28;20169;-83
2021/12/30 09:57:43;;;;;;;5.10;3.90;;;;;;;;;;5073442;28;20196;-83
2021/12/30 10:00:10;;;;;;;5.53;3.97;;;;;;;;;;5073665;28;20181;-83
2021/12/30 10:02:36;;;;;;;4.43;3.70;;;;;;;;;;5073483;28;20254;-83
2021/12/30 10:05:07;;;;;;;3.70;3.30;;;;;;;;;;5073489;28;20215;-82
2021/12/30 10:07:33;;;;;;;3.87;3.50;;;;;;;;;;5073597;28;20228;-83
2021/12/30 10:10:02;;;;;;;3.77;3.10;;;;;;;;;;5073385;28;20264;-82
2021/12/30 10:12:39;;;;;;;3.97;2.87;;;;;;;;;;5072782;28;20309;-83
2021/12/30 10:15:06;;;;;;;4.57;3.20;;;;;;;;;;5073563;28;20237;-82
2021/12/30 10:17:32;;;;;;;4.10;3.57;;;;;;;;;;5073462;28;20197;-83
2021/12/30 10:20:18;;;;;;;4.80;3.30;;;;;;;;;;5072456;28;20179;-83
2021/12/30 10:22:46;;;;;;;2.93;2.67;;;;;;;;;;5059395;28;20175;-83
2021/12/30 10:25:29;;;;;;;2.83;2.57;;;;;;;;;;5073205;28;20179;-83
2021/12/30 10:27:55;;;;;;;3.63;3.33;;;;;;;;;;5056671;28;20185;-83
2021/12/30 10:30:31;;;;;;;5.23;3.37;;;;;;;;;;5071981;28;20181;-83
2021/12/30 10:33:17;;;;;;;3.00;2.80;;;;;;;;;;5073129;28;20224;-83
2021/12/30 10:35:43;;;;;;;4.90;3.63;;;;;;;;;;5090250;28;20234;-83
2021/12/30 10:38:11;;;;;;;3.50;3.20;;;;;;;;;;5090407;28;20254;-84
2021/12/30 10:40:39;;;;;;;3.40;3.10;;;;;;;;;;5072551;28;20275;-83
2021/12/30 10:43:18;;;;;;;3.03;2.60;;;;;;;;;;5072703;28;20196;-83
2021/12/30 10:46:00;;;;;;;6.20;2.63;;;;;;;;;;5072978;28;20175;-84
2021/12/30 10:48:26;;;;;;;3.03;2.83;;;;;;;;;;5089518;28;20184;-84
2021/12/30 10:51:08;;;;;;;4.63;3.80;;;;;;;;;;5089394;28;20215;-82
2021/12/30 10:53:36;;;;;;;5.43;4.07;;;;;;;;;;5089367;28;20199;-85
2021/12/30 10:56:22;;;;;;;3.20;2.90;;;;;;;;;;5072854;28;20242;-85
2021/12/30 10:58:48;;;;;;;5.03;3.60;;;;;;;;;;5072772;28;20173;-84
2021/12/30 11:01:18;;;;;;;2.77;2.50;;;;;;;;;;5089361;28;20184;-85
2021/12/30 11:03:58;;;;;;;2.70;2.50;;;;;;;;;;5072529;28;20189;-84
2021/12/30 11:06:24;;;;;;;3.33;3.03;;;;;;;;;;5072271;28;20205;-83
2021/12/30 11:09:04;;;;;;;3.00;2.70;;;;;;;;;;5089654;28;20293;-84
2021/12/30 11:11:30;;;;;;;2.63;2.23;;;;;;;;;;5085839;28;20205;-84
2021/12/30 11:14:07;;;;;;;3.40;2.80;;;;;;;;;;5086067;28;20208;-84
2021/12/30 11:16:33;;;;;;;2.20;2.00;;;;;;;;;;5055654;28;20204;-79
2021/12/30 11:19:00;;;;;;;2.50;2.30;;;;;;;;;;5071906;28;20559;-78
2021/12/30 11:21:36;;;;;;;4.70;3.87;;;;;;;;;;5072164;28;20181;-78
2021/12/30 11:24:02;;;;;;;3.37;3.07;;;;;;;;;;5072607;28;20176;-78
2021/12/30 11:26:28;;;;;;;2.30;2.10;;;;;;;;;;5072209;28;20206;-83
2021/12/30 11:28:55;;;;;;;2.67;2.47;;;;;;;;;;5055463;28;20185;-79
2021/12/30 11:31:21;;;;;;;2.60;2.37;;;;;;;;;;5055530;28;20186;-80
2021/12/30 11:33:47;;;;;;;2.37;2.20;;;;;;;;;;5073196;28;20196;-79
2021/12/30 11:36:13;;;;;;;2.67;2.47;;;;;;;;;;5093091;22;20595;-81
2021/12/30 11:38:39;;;;;;;2.80;2.60;;;;;;;;;;5037982;28;20181;-82
2021/12/30 11:41:06;;;;;;;4.73;3.80;;;;;;;;;;5038577;28;20169;-83
2021/12/30 11:43:42;;;;;;;2.70;2.50;;;;;;;;;;5038860;28;20177;-84
2021/12/30 11:46:08;;;;;;;3.00;2.67;;;;;;;;;;5055005;28;20209;-80
2021/12/30 11:48:38;;;;;;;3.00;2.80;;;;;;;;;;5055463;28;20184;-80
2021/12/30 11:51:12;;;;;;;2.60;2.40;;;;;;;;;;5039053;28;20185;-85
2021/12/30 11:53:39;;;;;;;4.53;3.70;;;;;;;;;;5037553;28;20292;-85
2021/12/30 11:56:11;;;;;;;3.90;2.50;;;;;;;;;;5038294;28;20200;-85
2021/12/30 11:58:42;;;;;;;2.40;2.20;;;;;;;;;;5054932;28;20191;-85
2021/12/30 12:01:11;;;;;;;2.53;2.33;;;;;;;;;;5072663;28;20181;-85
2021/12/30 12:03:38;;;;;;;6.53;2.80;;;;;;;;;;5054597;28;20184;-85
2021/12/30 12:06:06;;;;;;;1.80;1.70;;;;;;;;;;5072705;28;20173;-85
2021/12/30 12:08:43;;;;;;;3.83;3.30;;;;;;;;;;5038348;28;20193;-85
2021/12/30 12:11:11;;;;;;;3.33;3.03;;;;;;;;;;5054547;28;20693;-85
2021/12/30 12:13:38;;;;;;;3.63;3.33;;;;;;;;;;5054439;28;20235;-85
2021/12/30 12:16:04;;;;;;;7.37;4.63;;;;;;;;;;5054609;28;20649;-85
2021/12/30 12:18:31;;;;;;;7.00;4.80;;;;;;;;;;5054393;28;20222;-85
2021/12/30 12:20:58;;;;;;;4.40;4.00;;;;;;;;;;5054244;28;20772;-85
2021/12/30 12:23:31;;;;;;;2.63;2.43;;;;;;;;;;5037843;28;20188;-85
2021/12/30 12:26:07;;;;;;;2.40;2.20;;;;;;;;;;5054535;28;20173;-84
2021/12/30 12:28:33;;;;;;;3.07;2.80;;;;;;;;;;5054603;28;20642;-85
2021/12/30 12:30:59;;;;;;;1.70;1.60;;;;;;;;;;5054225;28;20275;-86
2021/12/30 12:33:27;;;;;;;1.70;1.60;;;;;;;;;;5037913;28;20292;-84
2021/12/30 12:35:53;;;;;;;2.30;1.63;;;;;;;;;;5038015;28;20184;-85
2021/12/30 12:38:36;;;;;;;1.80;1.70;;;;;;;;;;5037992;28;20203;-85
2021/12/30 12:41:15;;;;;;;1.60;1.50;;;;;;;;;;5054320;28;20177;-84
2021/12/30 12:43:41;;;;;;;2.77;2.57;;;;;;;;;;5054231;28;20176;-84
2021/12/30 12:46:07;;;;;;;2.73;2.53;;;;;;;;;;5054188;28;20169;-85
2021/12/30 12:48:35;;;;;;;2.53;1.80;;;;;;;;;;5038073;28;20248;-85
2021/12/30 12:51:15;;;;;;;1.80;1.70;;;;;;;;;;5054294;28;20234;-85
2021/12/30 12:53:42;;;;;;;1.50;1.30;;;;;;;;;;5054015;28;20193;-84
2021/12/30 12:56:22;;;;;;;2.07;1.80;;;;;;;;;;5072278;28;20248;-84
2021/12/30 12:58:53;;;;;;;1.37;1.27;;;;;;;;;;5038195;28;20176;-84
2021/12/30 13:01:21;;;;;;;2.00;1.17;;;;;;;;;;5054117;28;20252;-84
2021/12/30 13:03:48;;;;;;;1.60;1.50;;;;;;;;;;5054004;28;20185;-84
2021/12/30 13:06:16;;;;;;;1.60;1.50;;;;;;;;;;5057461;28;20205;-84
2021/12/30 13:08:43;;;;;;;1.93;1.77;;;;;;;;;;5057965;28;20634;-83
2021/12/30 13:11:10;;;;;;;2.07;1.90;;;;;;;;;;5040630;28;20647;-83
2021/12/30 13:13:43;;;;;;;2.00;1.90;;;;;;;;;;5040659;28;20208;-83
2021/12/30 13:16:27;;;;;;;1.90;1.40;;;;;;;;;;5040549;28;20185;-84
2021/12/30 13:19:05;;;;;;;1.50;1.40;;;;;;;;;;5057599;28;20268;-84
2021/12/30 13:21:41;;;;;;;2.13;1.90;;;;;;;;;;5040226;28;20187;-83
2021/12/30 13:24:08;;;;;;;2.50;1.70;;;;;;;;;;5040380;28;20280;-83
2021/12/30 13:26:40;;;;;;;1.77;1.60;;;;;;;;;;5057109;28;20197;-83
2021/12/30 13:29:07;;;;;;;1.40;1.30;;;;;;;;;;5056699;28;20208;-83
2021/12/30 13:31:33;;;;;;;1.87;1.40;;;;;;;;;;5040602;28;20196;-84
2021/12/30 13:34:00;;;;;;;1.20;1.10;;;;;;;;;;5040056;28;20648;-83
2021/12/30 13:36:27;;;;;;;1.30;1.20;;;;;;;;;;5040174;28;20205;-84
2021/12/30 13:38:54;;;;;;;1.50;1.40;;;;;;;;;;5056747;28;20173;-83
2021/12/30 13:41:21;;;;;;;1.37;1.10;;;;;;;;;;5056423;28;20173;-84
2021/12/30 13:43:47;;;;;;;1.47;1.37;;;;;;;;;;5040051;28;20191;-82
2021/12/30 13:46:14;;;;;;;1.30;1.20;;;;;;;;;;5041970;28;20204;-84
2021/12/30 13:48:41;;;;;;;1.87;1.40;;;;;;;;;;5074338;28;20548;-84
2021/12/30 13:51:07;;;;;;;1.50;1.40;;;;;;;;;;5073978;28;20651;-84
2021/12/30 13:53:34;;;;;;;1.50;1.40;;;;;;;;;;5056260;28;20196;-83
2021/12/30 13:56:01;;;;;;;1.87;1.43;;;;;;;;;;5039664;28;20272;-84
2021/12/30 13:58:29;;;;;;;1.50;1.40;;;;;;;;;;5040051;28;20206;-84
2021/12/30 14:01:07;;;;;;;2.40;1.33;;;;;;;;;;5056015;28;20180;-84
2021/12/30 14:03:34;;;;;;;1.87;1.70;;;;;;;;;;5056179;28;20183;-84
2021/12/30 14:06:04;;;;;;;10.27;4.53;;;;;;;;;;5055817;28;20188;-84
2021/12/30 14:08:31;;;;;;;7.30;4.07;;;;;;;;;;5039484;28;20184;-84
2021/12/30 14:10:58;;;;;;;8.77;5.20;;;;;;;;;;5055712;28;20238;-84
2021/12/30 14:13:35;;;;;;;8.80;5.60;;;;;;;;;;5039499;28;20212;-84
2021/12/30 14:16:03;;;;;;;6.30;4.33;;;;;;;;;;5038458;28;20185;-85
2021/12/30 14:18:30;;;;;;;7.80;5.30;;;;;;;;;;5073827;28;20176;-84
2021/12/30 14:20:56;;;;;;;2.23;1.83;;;;;;;;;;5039049;28;20177;-83
2021/12/30 14:23:37;;;;;;;3.30;2.50;;;;;;;;;;5039415;28;20177;-84
2021/12/30 14:26:16;;;;;;;4.00;2.63;;;;;;;;;;5055877;28;20226;-84
2021/12/30 14:29:01;;;;;;;4.50;2.80;;;;;;;;;;5055858;28;20184;-83
2021/12/30 14:31:27;;;;;;;6.23;3.77;;;;;;;;;;5055286;28;20227;-84
2021/12/30 14:34:08;;;;;;;4.47;3.13;;;;;;;;;;5055790;28;20205;-83
2021/12/30 14:36:35;;;;;;;7.30;4.03;;;;;;;;;;5055449;28;20262;-84
2021/12/30 14:39:17;;;;;;;5.60;3.83;;;;;;;;;;5055450;28;20685;-84
2021/12/30 14:41:43;;;;;;;6.37;4.40;;;;;;;;;;5055346;28;20195;-83
2021/12/30 14:44:11;;;;;;;6.50;5.10;;;;;;;;;;5038947;28;20173;-84
2021/12/30 14:46:38;;;;;;;12.23;10.73;;;;;;;;;;5055257;28;20200;-84